Time;durP1;ratioP1;P1;durP2;ratioP2;P2;SDS_P1;SDS_P2;PMS_P1;PMS_P2;Temp;Humidity;BMP_temperature;BMP_pressure;BME280_temperature;BME280_humidity;BME280_pressure;Samples;Min_cycle;Max_cycle;Signal;HPM_P1;HPM_P2
2023/08/10 00:01:51;;;;;;;5.80;3.42;;;;;;;13.36;nan;102054.19;5024181;28;20120;-74
2023/08/10 00:04:16;;;;;;;7.50;3.45;;;;;;;13.41;nan;102054.13;5024822;28;20021;-74
2023/08/10 00:06:42;;;;;;;5.82;3.30;;;;;;;13.42;nan;102063.72;5023752;28;20026;-74
2023/08/10 00:09:08;;;;;;;6.82;2.97;;;;;;;13.44;nan;102064.53;5024732;28;20072;-74
2023/08/10 00:11:34;;;;;;;5.93;3.00;;;;;;;13.44;nan;102067.16;5024566;28;20185;-74
2023/08/10 00:13:59;;;;;;;5.05;3.33;;;;;;;13.41;nan;102060.25;5023909;28;20025;-74
2023/08/10 00:16:25;;;;;;;4.70;3.20;;;;;;;13.48;nan;102058.38;5024408;28;20044;-74
2023/08/10 00:18:50;;;;;;;4.80;3.67;;;;;;;13.45;nan;102055.81;5025476;28;20018;-74
2023/08/10 00:21:15;;;;;;;8.00;3.75;;;;;;;13.53;nan;102065.25;5022609;28;20030;-74
2023/08/10 00:23:41;;;;;;;6.13;3.80;;;;;;;13.53;nan;102062.63;5027283;28;20026;-74
2023/08/10 00:26:06;;;;;;;4.18;3.78;;;;;;;13.52;nan;102071.41;5021730;28;20029;-74
2023/08/10 00:28:32;;;;;;;7.85;3.47;;;;;;;13.49;nan;102075.81;5023616;28;20105;-74
2023/08/10 00:30:58;;;;;;;6.10;3.80;;;;;;;13.46;nan;102073.25;5023477;28;20021;-75
2023/08/10 00:33:24;;;;;;;7.15;3.78;;;;;;;13.49;nan;102070.59;5022841;28;20382;-74
2023/08/10 00:35:49;;;;;;;6.90;3.50;;;;;;;13.53;nan;102067.88;5018084;28;20034;-74
2023/08/10 00:38:14;;;;;;;6.32;4.10;;;;;;;13.52;nan;102065.28;5017754;28;20029;-74
2023/08/10 00:40:40;;;;;;;7.72;3.80;;;;;;;13.55;nan;102073.09;5022435;28;20025;-74
2023/08/10 00:43:05;;;;;;;6.30;4.00;;;;;;;13.47;nan;102068.00;5013604;28;20041;-74
2023/08/10 00:45:32;;;;;;;6.07;4.05;;;;;;;13.45;nan;102059.28;5022457;28;20030;-74
2023/08/10 00:47:58;;;;;;;7.28;3.70;;;;;;;13.43;nan;102071.53;5020414;28;20022;-74
2023/08/10 00:50:24;;;;;;;7.72;4.55;;;;;;;13.46;nan;102063.63;5026424;28;20033;-74
2023/08/10 00:52:50;;;;;;;6.60;4.18;;;;;;;13.42;nan;102053.25;5021325;28;20401;-74
2023/08/10 00:55:16;;;;;;;9.63;4.82;;;;;;;13.46;nan;102063.63;5018231;28;20040;-74
2023/08/10 00:57:41;;;;;;;10.23;4.70;;;;;;;13.35;nan;102055.94;5028338;28;20034;-73
2023/08/10 01:00:10;;;;;;;7.35;4.50;;;;;;;13.22;nan;102062.25;5020754;28;20378;-74
2023/08/10 01:02:37;;;;;;;6.80;4.18;;;;;;;13.14;nan;102061.47;5027434;28;20061;-74
2023/08/10 01:05:02;;;;;;;8.88;4.70;;;;;;;13.02;nan;102051.19;5021026;28;20473;-74
2023/08/10 01:07:34;;;;;;;6.13;4.50;;;;;;;13.00;nan;102066.03;5026174;28;20091;-74
2023/08/10 01:10:10;;;;;;;8.95;5.15;;;;;;;13.04;nan;102070.34;5021556;28;20087;-74
2023/08/10 01:12:41;;;;;;;11.20;4.22;;;;;;;13.07;nan;102059.84;5019050;28;20100;-74
2023/08/10 01:15:28;;;;;;;6.65;4.10;;;;;;;13.03;nan;102073.88;5021492;28;20080;-74
2023/08/10 01:17:56;;;;;;;9.20;4.40;;;;;;;13.02;nan;102064.28;5024864;28;20033;-74
2023/08/10 01:20:25;;;;;;;6.60;4.00;;;;;;;12.99;nan;102053.84;5014917;28;20029;-74
2023/08/10 01:22:59;;;;;;;6.90;4.50;;;;;;;13.03;nan;102072.09;5019973;28;20041;-73
2023/08/10 01:25:25;;;;;;;8.93;4.40;;;;;;;13.01;nan;102063.41;5014491;28;20034;-74
2023/08/10 01:27:51;;;;;;;6.93;4.32;;;;;;;12.89;nan;102069.69;5020783;28;20076;-74
2023/08/10 01:30:16;;;;;;;8.82;4.28;;;;;;;12.86;nan;102068.88;5022859;28;20037;-74
2023/08/10 01:32:42;;;;;;;7.82;4.45;;;;;;;12.78;nan;102071.56;5020040;28;20560;-74
2023/08/10 01:35:10;;;;;;;9.00;4.55;;;;;;;12.73;nan;102070.78;5025557;28;20079;-74
2023/08/10 01:37:35;;;;;;;11.32;5.38;;;;;;;12.66;nan;102061.28;5012279;28;20052;-74
2023/08/10 01:40:01;;;;;;;7.95;4.82;;;;;;;12.61;nan;102068.31;5024588;28;20420;-74
2023/08/10 01:42:26;;;;;;;7.95;4.60;;;;;;;12.52;nan;102063.19;5021807;28;20117;-74
2023/08/10 01:44:52;;;;;;;9.13;4.65;;;;;;;12.55;nan;102068.38;5021905;28;20040;-74
2023/08/10 01:47:27;;;;;;;9.45;4.78;;;;;;;12.52;nan;102060.56;5015340;28;20354;-74
2023/08/10 01:50:00;;;;;;;8.88;5.60;;;;;;;12.60;nan;102083.13;5016841;28;20080;-74
2023/08/10 01:52:31;;;;;;;7.05;4.97;;;;;;;12.57;nan;102075.31;5021436;28;20060;-74
2023/08/10 01:54:57;;;;;;;8.88;5.10;;;;;;;12.50;nan;102076.28;5017270;28;20017;-74
2023/08/10 01:57:22;;;;;;;7.82;4.90;;;;;;;12.49;nan;102076.28;5016750;28;20156;-74
2023/08/10 01:59:47;;;;;;;6.10;4.82;;;;;;;12.44;nan;102058.06;5023655;28;20474;-74
2023/08/10 02:02:13;;;;;;;7.07;5.43;;;;;;;12.37;nan;102082.53;5023763;28;20037;-73
2023/08/10 02:04:38;;;;;;;8.55;5.28;;;;;;;12.30;nan;102076.53;5024303;28;20040;-74
2023/08/10 02:07:04;;;;;;;7.88;5.05;;;;;;;12.21;nan;102084.47;5022053;28;20030;-74
2023/08/10 02:09:29;;;;;;;6.53;5.15;;;;;;;12.16;nan;102091.47;5022764;28;20021;-74
2023/08/10 02:11:54;;;;;;;8.07;5.20;;;;;;;12.07;nan;102081.13;5023056;28;20112;-74
2023/08/10 02:14:20;;;;;;;15.52;6.00;;;;;;;11.95;nan;102076.88;5022134;28;20372;-74
2023/08/10 02:16:45;;;;;;;8.10;4.85;;;;;;;11.94;nan;102076.00;5021634;28;20025;-74
2023/08/10 02:19:10;;;;;;;11.05;5.53;;;;;;;11.92;nan;102079.50;5019711;28;20474;-74
2023/08/10 02:21:36;;;;;;;9.23;6.10;;;;;;;11.97;nan;102082.06;5020838;28;20040;-74
2023/08/10 02:24:01;;;;;;;8.68;5.35;;;;;;;11.93;nan;102083.84;5020305;28;20096;-74
2023/08/10 02:26:26;;;;;;;9.60;5.55;;;;;;;11.96;nan;102089.03;5022006;28;20038;-74
2023/08/10 02:28:52;;;;;;;9.93;5.35;;;;;;;11.99;nan;102093.38;5022712;28;20036;-74
2023/08/10 02:31:17;;;;;;;8.70;5.78;;;;;;;11.95;nan;102082.09;5020745;28;20485;-74
2023/08/10 02:33:43;;;;;;;7.30;5.70;;;;;;;11.93;nan;102083.84;5011249;28;20095;-74
2023/08/10 02:36:08;;;;;;;7.85;5.60;;;;;;;11.96;nan;102086.44;5021506;28;20029;-74
2023/08/10 02:38:34;;;;;;;8.55;5.53;;;;;;;11.87;nan;102073.44;5026160;28;20037;-74
2023/08/10 02:40:59;;;;;;;8.93;5.68;;;;;;;11.89;nan;102090.00;5024270;28;20385;-74
2023/08/10 02:43:24;;;;;;;12.15;5.95;;;;;;;11.82;nan;102094.38;5018496;28;20428;-74
2023/08/10 02:45:50;;;;;;;8.88;5.40;;;;;;;11.77;nan;102090.06;5028918;28;20026;-73
2023/08/10 02:48:15;;;;;;;7.85;5.28;;;;;;;11.75;nan;102084.00;5020486;28;20386;-74
2023/08/10 02:50:40;;;;;;;10.68;5.97;;;;;;;11.77;nan;102090.06;5029141;28;20025;-74
2023/08/10 02:53:06;;;;;;;9.48;5.50;;;;;;;11.78;nan;102090.06;5022581;28;20030;-74
2023/08/10 02:55:31;;;;;;;11.20;5.82;;;;;;;11.80;nan;102092.66;5016128;28;20018;-74
2023/08/10 02:57:56;;;;;;;9.25;5.57;;;;;;;11.73;nan;102097.91;5022936;28;20075;-74
2023/08/10 03:00:22;;;;;;;7.55;5.88;;;;;;;11.61;nan;102079.75;5024992;28;20056;-74
2023/08/10 03:02:50;;;;;;;10.27;5.75;;;;;;;11.68;nan;102093.63;5024239;28;20029;-74
2023/08/10 03:05:18;;;;;;;8.65;5.43;;;;;;;11.66;nan;102098.00;5024057;28;20436;-74
2023/08/10 03:07:45;;;;;;;8.05;5.40;;;;;;;11.61;nan;102099.78;5018706;28;20053;-74
2023/08/10 03:10:11;;;;;;;8.90;6.05;;;;;;;11.59;nan;102094.56;5026807;28;20100;-74
2023/08/10 03:12:37;;;;;;;12.52;6.13;;;;;;;11.58;nan;102095.44;5025119;28;20105;-74
2023/08/10 03:15:04;;;;;;;10.07;5.93;;;;;;;11.56;nan;102094.59;5027294;28;20453;-74
2023/08/10 03:17:30;;;;;;;10.43;6.03;;;;;;;11.55;nan;102107.66;5027436;28;20518;-74
2023/08/10 03:19:55;;;;;;;10.70;6.38;;;;;;;11.49;nan;102109.44;5019133;28;20021;-74
2023/08/10 03:22:20;;;;;;;9.60;5.85;;;;;;;11.50;nan;102107.69;5015161;28;20033;-74
2023/08/10 03:24:46;;;;;;;9.05;6.10;;;;;;;11.49;nan;102106.81;5024052;28;20384;-74
2023/08/10 03:27:11;;;;;;;11.40;6.45;;;;;;;11.40;nan;102086.00;5022407;28;20072;-74
2023/08/10 03:29:36;;;;;;;9.55;6.35;;;;;;;11.62;nan;102109.34;5020537;28;20064;-74
2023/08/10 03:32:01;;;;;;;10.43;5.95;;;;;;;11.64;nan;102107.56;5026290;28;20497;-74
2023/08/10 03:34:27;;;;;;;9.10;5.82;;;;;;;11.64;nan;102094.50;5024598;28;20034;-74
2023/08/10 03:36:53;;;;;;;12.85;6.13;;;;;;;11.60;nan;102098.03;5025016;28;20036;-74
2023/08/10 03:39:19;;;;;;;13.27;6.50;;;;;;;11.58;nan;102094.59;5020387;28;20048;-73
2023/08/10 03:41:44;;;;;;;14.90;6.50;;;;;;;11.50;nan;102089.41;5025412;28;20025;-74
2023/08/10 03:44:09;;;;;;;11.38;6.47;;;;;;;11.50;nan;102089.41;5024490;28;20129;-74
2023/08/10 03:46:35;;;;;;;13.88;7.38;;;;;;;11.51;nan;102090.25;5017079;28;20448;-74
2023/08/10 03:49:00;;;;;;;14.20;7.45;;;;;;;11.51;nan;102098.09;5027732;28;20373;-74
2023/08/10 03:51:25;;;;;;;15.68;7.15;;;;;;;11.43;nan;102101.63;5021395;28;20117;-74
2023/08/10 03:53:51;;;;;;;11.63;7.03;;;;;;;11.35;nan;102093.00;5029398;28;20405;-74
2023/08/10 03:56:17;;;;;;;12.40;6.65;;;;;;;11.37;nan;102104.28;5021871;28;20022;-74
2023/08/10 03:58:42;;;;;;;11.05;7.25;;;;;;;11.38;nan;102094.69;5028489;28;20906;-74
2023/08/10 04:01:08;;;;;;;13.63;7.07;;;;;;;11.39;nan;102106.91;5014902;28;20029;-74
2023/08/10 04:03:33;;;;;;;12.85;7.20;;;;;;;11.36;nan;102101.69;5020072;28;20037;-74
2023/08/10 04:05:59;;;;;;;9.40;5.88;;;;;;;11.39;nan;102102.53;5026983;28;20029;-74
2023/08/10 04:08:24;;;;;;;10.07;7.43;;;;;;;11.29;nan;102098.25;5020341;28;20030;-74
2023/08/10 04:10:50;;;;;;;14.82;7.10;;;;;;;11.32;nan;102113.91;5025466;28;20025;-73
2023/08/10 04:13:15;;;;;;;11.10;7.00;;;;;;;11.30;nan;102115.66;5023552;28;20037;-74
2023/08/10 04:15:40;;;;;;;12.85;7.35;;;;;;;11.22;nan;102107.88;5024738;28;20029;-74
2023/08/10 04:18:06;;;;;;;11.38;9.48;;;;;;;11.25;nan;102120.06;5024412;28;20048;-74
2023/08/10 04:20:31;;;;;;;12.75;8.63;;;;;;;11.24;nan;102118.28;5025779;28;20380;-74
2023/08/10 04:22:59;;;;;;;13.90;9.40;;;;;;;11.24;nan;102116.53;5024982;28;20030;-74
2023/08/10 04:25:24;;;;;;;15.25;8.52;;;;;;;11.30;nan;102110.44;5013910;28;20093;-73
2023/08/10 04:27:49;;;;;;;11.63;8.18;;;;;;;11.33;nan;102115.63;5023914;28;20493;-74
2023/08/10 04:30:15;;;;;;;12.82;8.35;;;;;;;11.43;nan;102116.44;5021599;28;20034;-74
2023/08/10 04:32:40;;;;;;;12.35;9.10;;;;;;;11.41;nan;102116.47;5024038;28;20052;-74
2023/08/10 04:35:06;;;;;;;16.60;10.02;;;;;;;11.38;nan;102128.66;5021860;28;20057;-74
2023/08/10 04:37:31;;;;;;;17.00;9.38;;;;;;;11.28;nan;102120.03;5021230;28;20385;-74
2023/08/10 04:39:56;;;;;;;15.43;10.68;;;;;;;11.27;nan;102120.88;5023718;28;20091;-74
2023/08/10 04:42:22;;;;;;;17.88;10.15;;;;;;;11.31;nan;102129.56;5019841;28;20033;-74
2023/08/10 04:44:47;;;;;;;14.60;9.73;;;;;;;11.28;nan;102121.75;5024416;28;20111;-74
2023/08/10 04:47:12;;;;;;;13.48;9.27;;;;;;;11.33;nan;102138.28;5023390;28;20029;-74
2023/08/10 04:49:38;;;;;;;11.48;9.85;;;;;;;11.25;nan;102115.69;5022928;28;20034;-74
2023/08/10 04:52:04;;;;;;;15.68;10.20;;;;;;;11.40;nan;102133.00;5024582;28;20033;-74
2023/08/10 04:54:29;;;;;;;14.13;9.88;;;;;;;11.48;nan;102141.66;5018018;28;20033;-74
2023/08/10 04:56:54;;;;;;;16.08;10.82;;;;;;;11.68;nan;102143.25;5023970;28;20104;-74
2023/08/10 04:59:20;;;;;;;15.15;9.85;;;;;;;11.86;nan;102135.28;5024996;28;20029;-74
2023/08/10 05:01:46;;;;;;;10.75;9.60;;;;;;;12.01;nan;102139.53;5021412;28;20026;-74
2023/08/10 05:04:14;;;;;;;13.63;9.00;;;;;;;12.08;nan;102132.50;5027287;28;20038;-74
2023/08/10 05:06:39;;;;;;;12.63;8.18;;;;;;;12.19;nan;102128.03;5017746;28;20026;-74
2023/08/10 05:09:04;;;;;;;10.07;7.50;;;;;;;12.26;nan;102129.75;5027958;28;20121;-74
2023/08/10 05:11:30;;;;;;;11.30;7.93;;;;;;;12.35;nan;102140.06;5020070;28;20358;-74
2023/08/10 05:13:56;;;;;;;14.90;8.05;;;;;;;12.35;nan;102133.97;5027882;28;20032;-74
2023/08/10 05:16:21;;;;;;;13.50;7.78;;;;;;;12.33;nan;102133.16;5016470;28;20113;-74
2023/08/10 05:18:47;;;;;;;11.93;8.27;;;;;;;12.29;nan;102128.81;5024016;28;20021;-74
2023/08/10 05:21:12;;;;;;;13.20;7.90;;;;;;;12.29;nan;102140.13;5018181;28;20033;-74
2023/08/10 05:23:38;;;;;;;10.65;7.13;;;;;;;12.28;nan;102141.03;5012399;28;20026;-74
2023/08/10 05:26:04;;;;;;;11.73;8.50;;;;;;;12.26;nan;102132.34;5016432;28;20505;-74
2023/08/10 05:28:29;;;;;;;11.60;7.40;;;;;;;12.32;nan;102140.09;5015228;28;20092;-74
2023/08/10 05:30:54;;;;;;;9.30;7.43;;;;;;;12.31;nan;102138.38;5023794;28;20029;-75
2023/08/10 05:33:19;;;;;;;11.77;7.93;;;;;;;12.32;nan;102129.66;5021593;28;20109;-74
2023/08/10 05:35:46;;;;;;;13.02;7.50;;;;;;;12.40;nan;102138.28;5022993;28;20120;-74
2023/08/10 05:38:12;;;;;;;13.30;9.75;;;;;;;12.38;nan;102134.81;5022623;28;20048;-74
2023/08/10 05:40:38;;;;;;;13.85;10.38;;;;;;;12.39;nan;102126.09;5019103;28;20040;-74
2023/08/10 05:43:04;;;;;;;15.77;10.48;;;;;;;12.49;nan;102136.44;5025646;28;20025;-74
2023/08/10 05:45:30;;;;;;;14.55;10.60;;;;;;;12.51;nan;102145.16;5020118;28;20029;-74
2023/08/10 05:47:55;;;;;;;12.77;10.35;;;;;;;12.53;nan;102128.56;5024257;28;20032;-74
2023/08/10 05:50:20;;;;;;;12.52;10.23;;;;;;;12.51;nan;102130.31;5022550;28;20021;-74
2023/08/10 05:52:46;;;;;;;12.23;9.88;;;;;;;12.52;nan;102126.81;5022026;28;20531;-74
2023/08/10 05:55:12;;;;;;;13.10;9.52;;;;;;;12.53;nan;102132.94;5023079;28;20071;-74
2023/08/10 05:57:39;;;;;;;12.73;9.30;;;;;;;12.57;nan;102134.63;5021254;28;20028;-74
2023/08/10 06:00:05;;;;;;;13.80;9.02;;;;;;;12.63;nan;102132.81;5023374;28;20025;-74
2023/08/10 06:02:31;;;;;;;16.77;10.25;;;;;;;12.68;nan;102129.25;5023865;28;20032;-74
2023/08/10 06:04:56;;;;;;;17.25;13.25;;;;;;;12.78;nan;102129.13;5021766;28;20100;-74
2023/08/10 06:07:22;;;;;;;51.50;44.72;;;;;;;12.87;nan;102129.03;5023209;28;20033;-74
2023/08/10 06:09:47;;;;;;;30.95;27.63;;;;;;;13.00;nan;102129.75;5024211;28;20101;-74
2023/08/10 06:12:12;;;;;;;53.38;47.72;;;;;;;13.22;nan;102135.56;5026253;28;20071;-74
2023/08/10 06:14:38;;;;;;;37.33;30.13;;;;;;;13.50;nan;102137.81;5028059;28;20084;-74
2023/08/10 06:17:04;;;;;;;30.17;24.10;;;;;;;13.70;nan;102122.66;5025937;28;20076;-74
2023/08/10 06:19:31;;;;;;;13.68;11.65;;;;;;;14.00;nan;102123.91;5025905;28;20037;-74
2023/08/10 06:21:56;;;;;;;14.18;9.95;;;;;;;14.09;nan;102120.22;5018597;28;20048;-73
2023/08/10 06:24:22;;;;;;;15.93;10.02;;;;;;;14.17;nan;102122.72;5032047;28;20489;-74
2023/08/10 06:26:48;;;;;;;13.32;8.48;;;;;;;14.07;nan;102111.53;5022979;28;20105;-74
2023/08/10 06:29:14;;;;;;;12.30;8.27;;;;;;;14.02;nan;102131.72;5025322;28;20049;-74
2023/08/10 06:31:40;;;;;;;14.18;8.23;;;;;;;13.91;nan;102131.91;5027157;28;20034;-74
2023/08/10 06:34:05;;;;;;;12.70;9.38;;;;;;;13.97;nan;102133.56;5023103;28;20026;-74
2023/08/10 06:36:30;;;;;;;14.05;7.90;;;;;;;14.04;nan;102122.09;5024496;28;20151;-74
2023/08/10 06:38:57;;;;;;;10.43;8.20;;;;;;;14.10;nan;102123.75;5019326;28;20033;-73
2023/08/10 06:41:22;;;;;;;10.45;8.52;;;;;;;14.27;nan;102126.91;5014728;28;20049;-73
2023/08/10 06:43:49;;;;;;;13.93;8.27;;;;;;;14.33;nan;102112.81;5026432;28;20084;-73
2023/08/10 06:46:14;;;;;;;10.90;7.90;;;;;;;14.42;nan;102117.88;5016825;28;20026;-73
2023/08/10 06:48:39;;;;;;;11.13;7.07;;;;;;;14.54;nan;102119.44;5030199;28;20022;-74
2023/08/10 06:51:05;;;;;;;11.32;7.68;;;;;;;14.62;nan;102117.53;5020037;28;20497;-74
2023/08/10 06:53:31;;;;;;;11.30;7.05;;;;;;;14.69;nan;102109.50;5022929;28;20037;-74
2023/08/10 06:55:57;;;;;;;12.32;7.60;;;;;;;14.82;nan;102115.38;5022729;28;20022;-73
2023/08/10 06:58:22;;;;;;;9.90;6.78;;;;;;;14.94;nan;102109.88;5026855;28;20037;-74
2023/08/10 07:00:48;;;;;;;10.73;6.35;;;;;;;15.01;nan;102109.72;5017182;28;20033;-74
2023/08/10 07:03:14;;;;;;;10.23;6.43;;;;;;;15.08;nan;102111.34;5014691;28;20084;-75
2023/08/10 07:05:42;;;;;;;8.63;5.03;;;;;;;15.14;nan;102117.31;5025082;28;20034;-75
2023/08/10 07:08:10;;;;;;;8.50;5.05;;;;;;;15.09;nan;102098.16;5019817;28;20405;-75
2023/08/10 07:10:36;;;;;;;7.28;4.25;;;;;;;15.18;nan;102095.31;5026328;28;20037;-74
2023/08/10 07:13:02;;;;;;;7.47;3.70;;;;;;;15.32;nan;102096.75;5020474;28;20101;-76
2023/08/10 07:15:27;;;;;;;8.65;4.88;;;;;;;15.44;nan;102107.00;5024691;28;20100;-76
2023/08/10 07:17:53;;;;;;;8.55;4.22;;;;;;;15.54;nan;102111.13;5012947;28;20034;-76
2023/08/10 07:20:18;;;;;;;8.82;4.10;;;;;;;15.66;nan;102108.25;5024976;28;20446;-76
2023/08/10 07:22:45;;;;;;;6.47;3.97;;;;;;;15.72;nan;102112.47;5024479;28;20018;-76
2023/08/10 07:25:12;;;;;;;7.75;3.97;;;;;;;15.72;nan;102112.47;5015730;28;20088;-76
2023/08/10 07:27:37;;;;;;;5.68;3.60;;;;;;;15.83;nan;102118.34;5025479;28;20029;-76
2023/08/10 07:30:03;;;;;;;6.57;2.83;;;;;;;15.89;nan;102112.94;5022664;28;20034;-76
2023/08/10 07:32:29;;;;;;;6.05;3.47;;;;;;;15.97;nan;102111.88;5021398;28;20092;-76
2023/08/10 07:34:54;;;;;;;6.18;3.33;;;;;;;16.00;nan;102112.63;5020246;28;20535;-77
2023/08/10 07:37:19;;;;;;;7.13;3.20;;;;;;;16.00;nan;102112.63;5023204;28;20072;-76
2023/08/10 07:39:45;;;;;;;4.47;2.58;;;;;;;16.08;nan;102101.91;5022438;28;20048;-77
2023/08/10 07:42:10;;;;;;;4.63;2.47;;;;;;;16.10;nan;102108.00;5022607;28;20017;-77
2023/08/10 07:44:35;;;;;;;4.72;2.50;;;;;;;16.23;nan;102109.41;5022773;28;20045;-76
2023/08/10 07:47:01;;;;;;;5.50;2.75;;;;;;;16.31;nan;102102.16;5011692;28;20036;-76
2023/08/10 07:49:27;;;;;;;2.63;2.00;;;;;;;16.31;nan;102096.03;5015049;28;20080;-76
2023/08/10 07:51:53;;;;;;;3.60;2.47;;;;;;;16.45;nan;102109.69;5023036;28;20021;-76
2023/08/10 07:54:18;;;;;;;2.92;2.00;;;;;;;16.56;nan;102112.00;5017815;28;20037;-76
2023/08/10 07:56:43;;;;;;;3.20;2.00;;;;;;;16.55;nan;102105.88;5019627;28;20057;-76
2023/08/10 07:59:09;;;;;;;3.60;1.80;;;;;;;16.52;nan;102105.13;5024716;28;20029;-76
2023/08/10 08:01:34;;;;;;;2.92;1.60;;;;;;;16.62;nan;102117.97;5022010;28;20069;-76
2023/08/10 08:03:59;;;;;;;2.03;1.55;;;;;;;16.67;nan;102120.44;5029156;28;20062;-76
2023/08/10 08:06:25;;;;;;;2.22;1.35;;;;;;;16.75;nan;102115.88;5016870;28;20105;-77
2023/08/10 08:08:50;;;;;;;2.00;1.30;;;;;;;16.80;nan;102113.09;5030309;28;20029;-76
2023/08/10 08:11:17;;;;;;;1.90;1.52;;;;;;;16.93;nan;102114.47;5013821;28;20472;-76
2023/08/10 08:13:42;;;;;;;3.47;1.45;;;;;;;16.99;nan;102109.00;5018922;28;20034;-76
2023/08/10 08:16:08;;;;;;;2.63;1.60;;;;;;;17.08;nan;102110.50;5027026;28;20493;-76
2023/08/10 08:18:50;;;;;;;3.10;1.50;;;;;;;17.18;nan;102111.09;5018306;28;20038;-75
2023/08/10 08:21:17;;;;;;;2.25;1.38;;;;;;;17.27;nan;102116.09;5020472;28;20084;-76
2023/08/10 08:23:43;;;;;;;2.33;1.33;;;;;;;17.26;nan;102103.81;5011958;28;20022;-75
2023/08/10 08:26:08;;;;;;;3.42;1.40;;;;;;;17.40;nan;102106.88;5013199;28;20374;-76
2023/08/10 08:28:34;;;;;;;4.35;1.58;;;;;;;17.51;nan;102107.38;5019750;28;20026;-76
2023/08/10 08:30:59;;;;;;;4.75;1.60;;;;;;;17.55;nan;102101.09;5025833;28;20052;-77
2023/08/10 08:33:24;;;;;;;4.18;1.67;;;;;;;17.65;nan;102106.06;5019006;28;20039;-76
2023/08/10 08:35:50;;;;;;;3.88;1.60;;;;;;;17.77;nan;102109.19;5025603;28;20437;-76
2023/08/10 08:38:17;;;;;;;3.53;1.70;;;;;;;17.94;nan;102113.03;5023465;28;20079;-76
2023/08/10 08:40:43;;;;;;;3.92;1.75;;;;;;;17.98;nan;102107.63;5020275;28;20061;-76
2023/08/10 08:43:10;;;;;;;2.78;1.52;;;;;;;18.17;nan;102115.75;5028012;28;20113;-76
2023/08/10 08:45:35;;;;;;;2.42;1.33;;;;;;;18.25;nan;102107.56;5021314;28;20509;-76
2023/08/10 08:48:03;;;;;;;1.85;1.30;;;;;;;18.35;nan;102111.59;5025574;28;20033;-76
2023/08/10 08:50:28;;;;;;;7.45;1.95;;;;;;;18.47;nan;102111.16;5022813;28;20389;-76
2023/08/10 08:52:55;;;;;;;3.00;1.52;;;;;;;18.59;nan;102111.63;5024998;28;20025;-76
2023/08/10 08:55:20;;;;;;;2.97;1.52;;;;;;;18.82;nan;102116.94;5023680;28;20042;-76
2023/08/10 08:57:47;;;;;;;1.95;1.45;;;;;;;19.29;nan;102113.38;5023361;28;20045;-76
2023/08/10 09:00:13;;;;;;;2.85;1.30;;;;;;;19.71;nan;102113.44;5023199;28;20492;-76
2023/08/10 09:02:39;;;;;;;5.28;1.90;;;;;;;20.33;nan;102114.31;5023481;28;20033;-76
2023/08/10 09:05:04;;;;;;;3.40;1.60;;;;;;;20.92;nan;102107.25;5024065;28;20052;-76
2023/08/10 09:07:30;;;;;;;3.63;1.67;;;;;;;21.17;nan;102094.56;5022597;28;20040;-76
2023/08/10 09:09:56;;;;;;;4.40;1.70;;;;;;;21.32;nan;102100.03;5022787;28;20083;-76
2023/08/10 09:12:35;;;;;;;2.00;1.35;;;;;;;21.47;nan;102094.03;5023012;28;20029;-76
2023/08/10 09:15:03;;;;;;;3.03;1.35;;;;;;;21.43;nan;102095.13;5020451;28;20021;-76
2023/08/10 09:17:29;;;;;;;4.65;1.55;;;;;;;21.46;nan;102084.34;5023433;28;20049;-76
2023/08/10 09:19:54;;;;;;;4.05;1.58;;;;;;;21.54;nan;102083.97;5021036;28;20064;-76
2023/08/10 09:22:31;;;;;;;1.70;1.35;;;;;;;21.63;nan;102092.31;5014261;28;20109;-77
2023/08/10 09:24:57;;;;;;;3.20;1.70;;;;;;;21.68;nan;102090.31;5013481;28;20032;-76
2023/08/10 09:27:25;;;;;;;2.70;1.67;;;;;;;21.59;nan;102082.81;5023693;28;20022;-77
2023/08/10 09:29:55;;;;;;;4.40;1.60;;;;;;;21.62;nan;102092.41;5022086;28;20124;-77
2023/08/10 09:32:20;;;;;;;2.88;1.60;;;;;;;21.66;nan;102092.19;5022424;28;20057;-77
2023/08/10 09:34:46;;;;;;;3.95;2.03;;;;;;;21.71;nan;102092.81;5022159;28;20025;-76
2023/08/10 09:37:14;;;;;;;2.53;1.70;;;;;;;21.94;nan;102083.69;5019106;28;20535;-77
2023/08/10 09:39:40;;;;;;;3.72;1.67;;;;;;;21.85;nan;102077.97;5007822;28;20405;-77
2023/08/10 09:42:05;;;;;;;4.28;1.50;;;;;;;21.92;nan;102090.00;5012222;28;20034;-77
2023/08/10 09:44:47;;;;;;;3.88;2.25;;;;;;;21.97;nan;102080.88;5020069;28;20025;-77
2023/08/10 09:47:14;;;;;;;3.88;1.90;;;;;;;21.98;nan;102087.88;5023061;28;20473;-77
2023/08/10 09:49:51;;;;;;;2.33;1.85;;;;;;;22.06;nan;102094.59;5017198;28;20411;-77
2023/08/10 09:52:16;;;;;;;2.72;1.70;;;;;;;22.07;nan;102072.41;5013767;28;20030;-77
2023/08/10 09:54:41;;;;;;;3.38;1.70;;;;;;;22.31;nan;102089.75;5026269;28;20559;-78
2023/08/10 09:57:07;;;;;;;5.45;2.00;;;;;;;22.53;nan;102083.25;5020333;28;20041;-77
2023/08/10 09:59:32;;;;;;;2.63;1.88;;;;;;;22.72;nan;102080.47;5021916;28;20029;-77
2023/08/10 10:01:58;;;;;;;2.80;1.70;;;;;;;22.84;nan;102093.94;5023410;28;20036;-78
2023/08/10 10:04:27;;;;;;;3.63;1.70;;;;;;;23.10;nan;102086.34;5020593;28;20021;-77
2023/08/10 10:06:54;;;;;;;3.50;1.80;;;;;;;23.26;nan;102095.16;5018317;28;20037;-77
2023/08/10 10:09:20;;;;;;;4.57;1.83;;;;;;;23.50;nan;102087.56;5025177;28;20064;-77
2023/08/10 10:11:47;;;;;;;3.78;2.00;;;;;;;23.70;nan;102086.41;5014794;28;20108;-78
2023/08/10 10:14:12;;;;;;;2.10;1.67;;;;;;;23.76;nan;102095.84;5018291;28;20076;-77
2023/08/10 10:16:38;;;;;;;3.97;1.67;;;;;;;23.80;nan;102095.56;5017895;28;20432;-76
2023/08/10 10:19:03;;;;;;;7.93;1.88;;;;;;;23.81;nan;102091.97;5008610;28;20034;-73
2023/08/10 10:21:29;;;;;;;4.25;2.10;;;;;;;23.77;nan;102102.88;5007594;28;20030;-73
2023/08/10 10:24:01;;;;;;;2.80;1.90;;;;;;;23.60;nan;102098.53;5012064;28;20030;-73
2023/08/10 10:26:26;;;;;;;2.67;1.80;;;;;;;23.64;nan;102104.53;5021113;28;20706;-73
2023/08/10 10:29:12;;;;;;;4.15;2.05;;;;;;;23.64;nan;102089.41;5013760;28;20104;-73
2023/08/10 10:31:40;;;;;;;4.32;1.90;;;;;;;23.69;nan;102097.16;5014236;28;20543;-73
2023/08/10 10:34:05;;;;;;;3.10;2.10;;;;;;;23.78;nan;102092.16;5014266;28;20026;-73
2023/08/10 10:36:33;;;;;;;3.25;1.90;;;;;;;23.82;nan;102091.03;5018587;28;20109;-72
2023/08/10 10:39:07;;;;;;;5.30;1.90;;;;;;;23.83;nan;102076.75;5007168;28;20493;-72
2023/08/10 10:41:39;;;;;;;3.00;1.90;;;;;;;24.08;nan;102090.41;5016608;28;20030;-72
2023/08/10 10:44:05;;;;;;;4.43;1.70;;;;;;;24.15;nan;102091.75;5028336;28;20124;-73
2023/08/10 10:46:35;;;;;;;3.83;1.80;;;;;;;24.12;nan;102082.13;5019419;28;20048;-72
2023/08/10 10:49:04;;;;;;;3.88;1.90;;;;;;;24.27;nan;102094.53;5024821;28;20026;-72
2023/08/10 10:51:29;;;;;;;6.72;2.00;;;;;;;24.39;nan;102079.56;5014958;28;20175;-72
2023/08/10 10:53:55;;;;;;;2.70;1.83;;;;;;;24.45;nan;102081.88;5025637;28;20112;-73
2023/08/10 10:56:22;;;;;;;4.70;1.80;;;;;;;24.45;nan;102084.53;5021701;28;20474;-73
2023/08/10 10:58:48;;;;;;;4.25;1.50;;;;;;;24.25;nan;102075.09;5010758;28;20034;-73
2023/08/10 11:01:22;;;;;;;3.55;1.80;;;;;;;24.36;nan;102066.47;5015095;28;20065;-73
2023/08/10 11:03:53;;;;;;;2.40;1.90;;;;;;;24.55;nan;102078.66;5025935;28;20075;-73
2023/08/10 11:06:20;;;;;;;3.13;2.13;;;;;;;24.66;nan;102078.84;5016123;28;20088;-73
2023/08/10 11:08:51;;;;;;;2.67;2.00;;;;;;;24.69;nan;102075.97;5030228;28;20543;-73
2023/08/10 11:11:17;;;;;;;3.42;2.28;;;;;;;24.51;nan;102068.16;5022235;28;20393;-73
2023/08/10 11:13:42;;;;;;;3.33;1.85;;;;;;;24.66;nan;102070.84;5023091;28;20026;-73
2023/08/10 11:16:09;;;;;;;2.83;1.90;;;;;;;24.72;nan;102059.75;5027521;28;20087;-72
2023/08/10 11:18:36;;;;;;;3.83;2.20;;;;;;;24.75;nan;102059.56;5017427;28;20033;-72
2023/08/10 11:21:06;;;;;;;3.75;1.98;;;;;;;24.62;nan;102066.63;5027690;28;20044;-72
2023/08/10 11:23:31;;;;;;;4.80;2.20;;;;;;;24.48;nan;102068.38;5022529;28;20022;-73
2023/08/10 11:25:57;;;;;;;6.60;2.75;;;;;;;24.18;nan;102071.09;5029142;28;20458;-73
2023/08/10 11:28:25;;;;;;;3.25;2.03;;;;;;;24.08;nan;102059.31;5018541;28;20103;-73
2023/08/10 11:30:51;;;;;;;2.65;1.92;;;;;;;23.98;nan;102064.34;5027402;28;20132;-72
2023/08/10 11:33:17;;;;;;;3.92;2.30;;;;;;;24.20;nan;102058.56;5023525;28;20113;-73
2023/08/10 11:35:48;;;;;;;4.10;2.20;;;;;;;24.44;nan;102052.69;5024903;28;20030;-72